Gure Amuitz — EASO — position and weather

sailwx.info

Track history (hours):
 
Tides and Currents Weather Stations Pressure Air Temp Water Temp Dewpoint Dewpoint Depression Visibility Wind Speed Wind Dir Waves Ship Positions

Gure Amuitz

Last reported at 2016-May-06 10:34 UTC. Time now 2016-May-06 14:59 UTC.
Position N 43°23' W 001°47'.

Length 28 m.

Type: Fishing. MMSI: 224010590.

Date/timePositionNaut miles runAvg speedWind from/ knotsBaromVisibWave heightAir tempDewpointWater temp
2016-May-06 10:34N 43°23' W 001°47'0 0.0
2016-May-06 09:34N 43°23' W 001°47'0 0.0
2016-May-06 08:34N 43°23' W 001°47'0 0.0
2016-May-06 07:33N 43°23' W 001°47'0 0.0
2016-May-05 17:21N 43°23' W 001°47'0 0.1
2016-May-05 16:33N 43°23' W 001°48'1 0.6
2016-May-05 15:33N 43°24' W 001°47'4 0.2
2016-May-04 17:10N 43°25' W 001°53'4 6.9
2016-May-04 16:33N 43°23' W 001°48'0 0.0
2016-May-04 15:33N 43°23' W 001°48'0 0.0
2016-May-04 14:33N 43°23' W 001°48'0 0.0
2016-May-04 13:32N 43°23' W 001°48'4 0.2
2016-May-03 12:29N 43°25' W 001°53'4 4.4
2016-May-03 11:33N 43°23' W 001°47'0 0.0
2016-May-03 10:33N 43°23' W 001°47'0 0.0
2016-May-03 09:33N 43°23' W 001°47'4 0.2
2016-May-02 17:27N 43°25' W 001°52'4 4.1
2016-May-02 16:33N 43°23' W 001°48'0 0.0
2016-May-02 15:33N 43°23' W 001°48'1 0.8
2016-May-02 14:33N 43°24' W 001°47'1 0.1
2016-May-02 06:33N 43°23' W 001°47'  
2016-Apr-29 14:31N 43°23' W 001°48'0 0.0
2016-Apr-29 13:33N 43°23' W 001°48'0 0.0
2016-Apr-29 10:15N 43°23' W 001°48'0 0.0
2016-Apr-29 09:04N 43°23' W 001°48'0 0.0
2016-Apr-29 08:32N 43°23' W 001°48'0 0.0
2016-Apr-29 07:30N 43°23' W 001°48'0 0.0
2016-Apr-28 12:33N 43°23' W 001°48'0 0.0
2016-Apr-28 11:33N 43°23' W 001°48'0 0.1
2016-Apr-28 10:27N 43°23' W 001°47'0 0.0
2016-Apr-28 09:32N 43°23' W 001°47'0 0.1
2016-Apr-28 08:33N 43°23' W 001°48'0 0.0
2016-Apr-27 15:21N 43°23' W 001°47'0 0.1
2016-Apr-27 11:22N 43°23' W 001°48'0 0.0
2016-Apr-27 10:32N 43°23' W 001°48'0 0.0
2016-Apr-27 09:33N 43°23' W 001°48'0 0.0
2016-Apr-27 08:33N 43°23' W 001°48'0 0.0
2016-Apr-27 07:33N 43°23' W 001°48'3 0.2
2016-Apr-26 14:33N 43°25' W 001°51'  
Track history (hours):
 
Tides and Currents Weather Stations Pressure Air Temp Water Temp Dewpoint Dewpoint Depression Visibility Wind Speed Wind Dir Waves Ship Positions

Gure Amuitz

Last reported at 2016-May-06 10:34 UTC. Time now 2016-May-06 14:59 UTC.
Position N 43°23' W 001°47'.

Length 28 m.

Type: Fishing. MMSI: 224010590.

Date/timePositionNaut miles runAvg speedWind from/ knotsBaromVisibWave heightAir tempDewpointWater temp
2016-May-06 10:34N 43°23' W 001°47'0 0.0
2016-May-06 09:34N 43°23' W 001°47'0 0.0
2016-May-06 08:34N 43°23' W 001°47'0 0.0
2016-May-06 07:33N 43°23' W 001°47'0 0.0
2016-May-05 17:21N 43°23' W 001°47'0 0.1
2016-May-05 16:33N 43°23' W 001°48'1 0.6
2016-May-05 15:33N 43°24' W 001°47'4 0.2
2016-May-04 17:10N 43°25' W 001°53'4 6.9
2016-May-04 16:33N 43°23' W 001°48'0 0.0
2016-May-04 15:33N 43°23' W 001°48'0 0.0
2016-May-04 14:33N 43°23' W 001°48'0 0.0
2016-May-04 13:32N 43°23' W 001°48'4 0.2
2016-May-03 12:29N 43°25' W 001°53'4 4.4
2016-May-03 11:33N 43°23' W 001°47'0 0.0
2016-May-03 10:33N 43°23' W 001°47'0 0.0
2016-May-03 09:33N 43°23' W 001°47'4 0.2
2016-May-02 17:27N 43°25' W 001°52'4 4.1
2016-May-02 16:33N 43°23' W 001°48'0 0.0
2016-May-02 15:33N 43°23' W 001°48'1 0.8
2016-May-02 14:33N 43°24' W 001°47'1 0.1
2016-May-02 06:33N 43°23' W 001°47'  
2016-Apr-29 14:31N 43°23' W 001°48'0 0.0
2016-Apr-29 13:33N 43°23' W 001°48'0 0.0
2016-Apr-29 10:15N 43°23' W 001°48'0 0.0
2016-Apr-29 09:04N 43°23' W 001°48'0 0.0
2016-Apr-29 08:32N 43°23' W 001°48'0 0.0
2016-Apr-29 07:30N 43°23' W 001°48'0 0.0
2016-Apr-28 12:33N 43°23' W 001°48'0 0.0
2016-Apr-28 11:33N 43°23' W 001°48'0 0.1
2016-Apr-28 10:27N 43°23' W 001°47'0 0.0
2016-Apr-28 09:32N 43°23' W 001°47'0 0.1
2016-Apr-28 08:33N 43°23' W 001°48'0 0.0
2016-Apr-27 15:21N 43°23' W 001°47'0 0.1
2016-Apr-27 11:22N 43°23' W 001°48'0 0.0
2016-Apr-27 10:32N 43°23' W 001°48'0 0.0
2016-Apr-27 09:33N 43°23' W 001°48'0 0.0
2016-Apr-27 08:33N 43°23' W 001°48'0 0.0
2016-Apr-27 07:33N 43°23' W 001°48'3 0.2
2016-Apr-26 14:33N 43°25' W 001°51'  

Dump ship's entire track history